sensor_id;sensor_type;location;lat;lon;timestamp;pressure;altitude;pressure_sealevel;temperature;humidity
21944;BME280;11136;48.778;9.126;2024-02-28T00:02:19;97403.75;;;10.46;59.18
21944;BME280;11136;48.778;9.126;2024-02-28T00:04:45;97358.31;;;10.23;59.30
21944;BME280;11136;48.778;9.126;2024-02-28T00:07:10;97373.22;;;9.89;59.62
21944;BME280;11136;48.778;9.126;2024-02-28T00:09:35;97439.28;;;10.65;59.30
21944;BME280;11136;48.778;9.126;2024-02-28T00:12:01;97452.50;;;10.32;59.18
21944;BME280;11136;48.778;9.126;2024-02-28T00:14:26;97156.13;;;8.61;59.61
21944;BME280;11136;48.778;9.126;2024-02-28T00:16:51;96938.16;;;6.94;59.36
21944;BME280;11136;48.778;9.126;2024-02-28T00:19:17;97304.16;;;8.93;59.55
21944;BME280;11136;48.778;9.126;2024-02-28T00:21:43;97373.81;;;9.80;59.58
21944;BME280;11136;48.778;9.126;2024-02-28T00:24:09;97444.28;;;10.54;59.15
21944;BME280;11136;48.778;9.126;2024-02-28T00:26:35;97070.72;;;7.95;59.18
21944;BME280;11136;48.778;9.126;2024-02-28T00:29:00;97418.69;;;10.27;58.85
21944;BME280;11136;48.778;9.126;2024-02-28T00:31:26;97313.22;;;9.66;59.27
21944;BME280;11136;48.778;9.126;2024-02-28T00:33:51;96987.34;;;7.53;58.98
21944;BME280;11136;48.778;9.126;2024-02-28T00:36:16;97440.78;;;10.42;59.02
21944;BME280;11136;48.778;9.126;2024-02-28T00:38:42;96763.50;;;5.73;58.72
21944;BME280;11136;48.778;9.126;2024-02-28T00:41:07;97229.47;;;8.87;59.02
21944;BME280;11136;48.778;9.126;2024-02-28T00:43:33;97367.03;;;9.79;58.98
21944;BME280;11136;48.778;9.126;2024-02-28T00:45:58;97443.91;;;10.33;58.72
21944;BME280;11136;48.778;9.126;2024-02-28T00:48:24;97320.09;;;9.25;58.55
21944;BME280;11136;48.778;9.126;2024-02-28T00:50:50;97449.94;;;10.32;58.85
21944;BME280;11136;48.778;9.126;2024-02-28T00:53:15;97398.59;;;9.79;59.11
21944;BME280;11136;48.778;9.126;2024-02-28T00:55:41;97402.66;;;9.96;58.82
21944;BME280;11136;48.778;9.126;2024-02-28T00:58:06;97455.56;;;10.24;58.76
21944;BME280;11136;48.778;9.126;2024-02-28T01:00:32;97355.97;;;9.37;58.76
21944;BME280;11136;48.778;9.126;2024-02-28T01:02:57;97392.19;;;9.72;58.98
21944;BME280;11136;48.778;9.126;2024-02-28T01:05:22;97257.69;;;8.86;58.74
21944;BME280;11136;48.778;9.126;2024-02-28T01:07:48;97448.97;;;9.79;58.38
21944;BME280;11136;48.778;9.126;2024-02-28T01:10:13;97296.28;;;9.10;58.69
21944;BME280;11136;48.778;9.126;2024-02-28T01:12:38;97341.97;;;9.57;58.56
21944;BME280;11136;48.778;9.126;2024-02-28T01:15:04;97309.53;;;9.43;58.48
21944;BME280;11136;48.778;9.126;2024-02-28T01:17:29;97457.44;;;10.35;58.48
21944;BME280;11136;48.778;9.126;2024-02-28T01:19:55;97091.84;;;8.12;58.44
21944;BME280;11136;48.778;9.126;2024-02-28T01:22:20;97000.72;;;7.57;58.26
21944;BME280;11136;48.778;9.126;2024-02-28T01:24:46;96977.31;;;7.22;58.17
21944;BME280;11136;48.778;9.126;2024-02-28T01:27:11;97453.34;;;10.32;58.75
21944;BME280;11136;48.778;9.126;2024-02-28T01:29:36;97377.00;;;9.83;58.45
21944;BME280;11136;48.778;9.126;2024-02-28T01:32:02;97375.44;;;9.81;58.26
21944;BME280;11136;48.778;9.126;2024-02-28T01:34:28;97210.34;;;8.38;58.22
21944;BME280;11136;48.778;9.126;2024-02-28T01:36:53;97423.56;;;9.76;58.79
21944;BME280;11136;48.778;9.126;2024-02-28T01:39:18;97198.28;;;8.54;58.91
21944;BME280;11136;48.778;9.126;2024-02-28T01:41:53;97482.84;;;10.25;58.80
21944;BME280;11136;48.778;9.126;2024-02-28T01:44:21;97267.81;;;8.73;59.14
21944;BME280;11136;48.778;9.126;2024-02-28T01:46:47;97371.84;;;9.57;59.45
21944;BME280;11136;48.778;9.126;2024-02-28T01:49:13;97163.16;;;8.15;59.83
21944;BME280;11136;48.778;9.126;2024-02-28T01:51:39;97103.25;;;7.78;59.73
21944;BME280;11136;48.778;9.126;2024-02-28T01:54:07;97013.56;;;7.27;59.67
21944;BME280;11136;48.778;9.126;2024-02-28T01:56:33;97328.88;;;9.20;59.50
21944;BME280;11136;48.778;9.126;2024-02-28T01:59:01;97437.53;;;9.85;59.92
21944;BME280;11136;48.778;9.126;2024-02-28T02:01:27;97488.59;;;10.14;59.66
21944;BME280;11136;48.778;9.126;2024-02-28T02:03:54;97313.81;;;9.02;60.17
21944;BME280;11136;48.778;9.126;2024-02-28T02:06:20;97370.16;;;9.14;59.95
21944;BME280;11136;48.778;9.126;2024-02-28T02:08:46;97266.75;;;8.63;60.04
21944;BME280;11136;48.778;9.126;2024-02-28T02:11:12;97528.69;;;10.01;60.41
21944;BME280;11136;48.778;9.126;2024-02-28T02:13:49;97313.09;;;8.85;60.64
21944;BME280;11136;48.778;9.126;2024-02-28T02:16:15;97219.06;;;8.19;60.61
21944;BME280;11136;48.778;9.126;2024-02-28T02:18:40;97165.13;;;7.81;60.64
21944;BME280;11136;48.778;9.126;2024-02-28T02:21:06;97240.97;;;8.23;60.74
21944;BME280;11136;48.778;9.126;2024-02-28T02:23:32;97185.25;;;7.12;60.71
21944;BME280;11136;48.778;9.126;2024-02-28T02:25:57;97208.84;;;8.05;61.33
21944;BME280;11136;48.778;9.126;2024-02-28T02:28:22;97394.00;;;9.15;61.24
21944;BME280;11136;48.778;9.126;2024-02-28T02:30:48;97404.78;;;9.20;61.35
21944;BME280;11136;48.778;9.126;2024-02-28T02:33:13;97322.22;;;8.47;60.51
21944;BME280;11136;48.778;9.126;2024-02-28T02:35:40;97327.78;;;8.53;60.88
21944;BME280;11136;48.778;9.126;2024-02-28T02:38:05;97141.63;;;7.46;60.91
21944;BME280;11136;48.778;9.126;2024-02-28T02:40:31;97433.13;;;9.31;60.94
21944;BME280;11136;48.778;9.126;2024-02-28T02:42:56;97346.59;;;8.67;60.86
21944;BME280;11136;48.778;9.126;2024-02-28T02:45:21;97451.84;;;9.17;60.90
21944;BME280;11136;48.778;9.126;2024-02-28T02:47:46;97275.25;;;8.19;60.97
21944;BME280;11136;48.778;9.126;2024-02-28T02:50:12;97301.38;;;8.09;60.87
21944;BME280;11136;48.778;9.126;2024-02-28T02:52:37;97245.13;;;7.96;60.60
21944;BME280;11136;48.778;9.126;2024-02-28T02:55:03;97291.50;;;8.33;60.82
21944;BME280;11136;48.778;9.126;2024-02-28T02:57:28;97535.13;;;9.80;60.80
21944;BME280;11136;48.778;9.126;2024-02-28T02:59:56;97267.34;;;7.94;61.05
21944;BME280;11136;48.778;9.126;2024-02-28T03:02:21;97509.31;;;9.40;61.11
21944;BME280;11136;48.778;9.126;2024-02-28T03:04:47;97407.31;;;8.77;61.07
21944;BME280;11136;48.778;9.126;2024-02-28T03:07:12;97182.41;;;7.32;61.16
21944;BME280;11136;48.778;9.126;2024-02-28T03:09:37;96986.16;;;6.26;61.48
21944;BME280;11136;48.778;9.126;2024-02-28T03:12:03;97397.25;;;8.60;61.05
21944;BME280;11136;48.778;9.126;2024-02-28T03:14:28;97563.66;;;9.74;61.09
21944;BME280;11136;48.778;9.126;2024-02-28T03:16:54;97434.00;;;8.87;61.53
21944;BME280;11136;48.778;9.126;2024-02-28T03:19:19;97564.00;;;9.68;61.27
21944;BME280;11136;48.778;9.126;2024-02-28T03:21:46;97138.38;;;6.98;60.97
21944;BME280;11136;48.778;9.126;2024-02-28T03:24:11;97418.59;;;8.59;61.61
21944;BME280;11136;48.778;9.126;2024-02-28T03:26:37;97524.88;;;8.93;61.35
21944;BME280;11136;48.778;9.126;2024-02-28T03:29:02;97326.09;;;7.78;61.24
21944;BME280;11136;48.778;9.126;2024-02-28T03:31:28;97580.09;;;9.56;61.37
21944;BME280;11136;48.778;9.126;2024-02-28T03:33:53;97471.75;;;8.68;61.64
21944;BME280;11136;48.778;9.126;2024-02-28T03:36:18;97322.19;;;7.87;61.72
21944;BME280;11136;48.778;9.126;2024-02-28T03:38:44;97467.63;;;8.66;61.60
21944;BME280;11136;48.778;9.126;2024-02-28T03:41:09;97476.31;;;8.63;61.58
21944;BME280;11136;48.778;9.126;2024-02-28T03:43:35;96823.69;;;4.63;61.35
21944;BME280;11136;48.778;9.126;2024-02-28T03:46:00;97369.13;;;8.00;61.38
21944;BME280;11136;48.778;9.126;2024-02-28T03:48:26;97602.59;;;9.50;61.77
21944;BME280;11136;48.778;9.126;2024-02-28T03:50:51;97357.44;;;7.96;61.30
21944;BME280;11136;48.778;9.126;2024-02-28T03:53:19;97431.22;;;8.16;61.94
21944;BME280;11136;48.778;9.126;2024-02-28T03:55:44;97397.41;;;8.11;61.88
21944;BME280;11136;48.778;9.126;2024-02-28T03:58:10;97552.72;;;8.98;61.79
21944;BME280;11136;48.778;9.126;2024-02-28T04:00:36;97638.56;;;9.47;61.63
21944;BME280;11136;48.778;9.126;2024-02-28T04:03:02;97546.97;;;8.64;61.67
21944;BME280;11136;48.778;9.126;2024-02-28T04:05:28;97557.81;;;9.13;61.30
21944;BME280;11136;48.778;9.126;2024-02-28T04:07:53;97478.28;;;8.58;62.02
21944;BME280;11136;48.778;9.126;2024-02-28T04:10:19;97575.88;;;9.10;61.85
21944;BME280;11136;48.778;9.126;2024-02-28T04:12:44;97496.53;;;8.36;61.85
21944;BME280;11136;48.778;9.126;2024-02-28T04:15:13;97578.34;;;9.12;61.50
21944;BME280;11136;48.778;9.126;2024-02-28T04:17:39;97483.06;;;8.33;61.62
21944;BME280;11136;48.778;9.126;2024-02-28T04:20:09;97625.22;;;9.42;61.50
21944;BME280;11136;48.778;9.126;2024-02-28T04:22:34;97374.72;;;7.91;61.83
21944;BME280;11136;48.778;9.126;2024-02-28T04:24:59;97422.94;;;8.11;61.67
21944;BME280;11136;48.778;9.126;2024-02-28T04:27:25;97301.69;;;7.43;61.71
21944;BME280;11136;48.778;9.126;2024-02-28T04:29:50;97634.44;;;9.45;61.72
21944;BME280;11136;48.778;9.126;2024-02-28T04:32:15;97559.31;;;9.02;61.15
21944;BME280;11136;48.778;9.126;2024-02-28T04:34:41;97639.28;;;9.35;61.83
21944;BME280;11136;48.778;9.126;2024-02-28T04:37:06;97402.78;;;7.91;61.91
21944;BME280;11136;48.778;9.126;2024-02-28T04:39:31;97590.09;;;9.00;62.11
21944;BME280;11136;48.778;9.126;2024-02-28T04:41:57;97271.75;;;6.83;61.28
21944;BME280;11136;48.778;9.126;2024-02-28T04:44:22;97638.97;;;9.26;61.95
21944;BME280;11136;48.778;9.126;2024-02-28T04:46:47;97639.63;;;9.29;62.34
21944;BME280;11136;48.778;9.126;2024-02-28T04:49:13;97523.31;;;8.45;61.91
21944;BME280;11136;48.778;9.126;2024-02-28T04:51:38;97640.59;;;9.27;61.36
21944;BME280;11136;48.778;9.126;2024-02-28T04:54:03;97504.03;;;8.23;62.35
21944;BME280;11136;48.778;9.126;2024-02-28T04:56:29;97466.78;;;8.19;61.72
21944;BME280;11136;48.778;9.126;2024-02-28T04:58:54;97646.53;;;9.27;62.02
21944;BME280;11136;48.778;9.126;2024-02-28T05:01:19;97296.44;;;7.14;61.96
21944;BME280;11136;48.778;9.126;2024-02-28T05:03:44;97640.88;;;9.22;62.02
21944;BME280;11136;48.778;9.126;2024-02-28T05:06:10;97291.16;;;7.01;62.11
21944;BME280;11136;48.778;9.126;2024-02-28T05:08:38;97290.81;;;6.92;61.72
21944;BME280;11136;48.778;9.126;2024-02-28T05:11:05;97586.28;;;8.62;61.82
21944;BME280;11136;48.778;9.126;2024-02-28T05:13:31;97418.44;;;7.69;62.26
21944;BME280;11136;48.778;9.126;2024-02-28T05:15:56;97648.97;;;9.14;62.40
21944;BME280;11136;48.778;9.126;2024-02-28T05:18:22;97276.81;;;6.67;62.32
21944;BME280;11136;48.778;9.126;2024-02-28T05:20:47;97566.25;;;8.54;62.41
21944;BME280;11136;48.778;9.126;2024-02-28T05:23:13;97626.66;;;8.86;62.25
21944;BME280;11136;48.778;9.126;2024-02-28T05:25:38;97659.47;;;9.10;62.61
21944;BME280;11136;48.778;9.126;2024-02-28T05:28:04;97661.22;;;9.09;62.80
21944;BME280;11136;48.778;9.126;2024-02-28T05:30:29;97284.00;;;6.43;62.08
21944;BME280;11136;48.778;9.126;2024-02-28T05:32:54;97709.84;;;8.27;62.35
21944;BME280;11136;48.778;9.126;2024-02-28T05:35:20;97450.50;;;7.75;62.45
21944;BME280;11136;48.778;9.126;2024-02-28T05:37:45;97440.00;;;7.63;62.35
21944;BME280;11136;48.778;9.126;2024-02-28T05:40:13;97556.91;;;8.21;62.47
21944;BME280;11136;48.778;9.126;2024-02-28T05:42:39;97670.38;;;8.98;62.53
21944;BME280;11136;48.778;9.126;2024-02-28T05:45:05;97602.59;;;8.59;62.27
21944;BME280;11136;48.778;9.126;2024-02-28T05:47:31;97629.16;;;8.41;62.21
21944;BME280;11136;48.778;9.126;2024-02-28T05:49:59;97558.56;;;8.22;62.49
21944;BME280;11136;48.778;9.126;2024-02-28T05:52:25;97678.03;;;8.98;62.67
21944;BME280;11136;48.778;9.126;2024-02-28T05:54:51;97542.22;;;8.09;62.68
21944;BME280;11136;48.778;9.126;2024-02-28T05:57:16;97511.09;;;7.87;62.52
21944;BME280;11136;48.778;9.126;2024-02-28T05:59:42;97536.56;;;8.04;62.20
21944;BME280;11136;48.778;9.126;2024-02-28T06:02:08;97323.50;;;6.68;62.63
21944;BME280;11136;48.778;9.126;2024-02-28T06:04:33;97484.03;;;7.51;62.06
21944;BME280;11136;48.778;9.126;2024-02-28T06:06:58;97660.81;;;8.70;62.17
21944;BME280;11136;48.778;9.126;2024-02-28T06:09:24;97428.94;;;6.98;62.67
21944;BME280;11136;48.778;9.126;2024-02-28T06:11:49;97456.34;;;7.28;62.43
21944;BME280;11136;48.778;9.126;2024-02-28T06:14:15;97416.16;;;7.16;62.52
21944;BME280;11136;48.778;9.126;2024-02-28T06:16:40;97691.31;;;8.73;62.59
21944;BME280;11136;48.778;9.126;2024-02-28T06:19:06;97591.66;;;7.92;62.45
21944;BME280;11136;48.778;9.126;2024-02-28T06:21:31;97459.47;;;7.33;62.68
21944;BME280;11136;48.778;9.126;2024-02-28T06:23:56;97422.19;;;6.97;62.50
21944;BME280;11136;48.778;9.126;2024-02-28T06:26:22;97562.38;;;7.82;62.87
21944;BME280;11136;48.778;9.126;2024-02-28T06:28:48;97725.88;;;8.96;62.66
21944;BME280;11136;48.778;9.126;2024-02-28T06:31:15;97729.34;;;8.95;62.20
21944;BME280;11136;48.778;9.126;2024-02-28T06:33:44;97183.00;;;5.59;62.46
21944;BME280;11136;48.778;9.126;2024-02-28T06:36:10;97410.19;;;6.99;61.77
21944;BME280;11136;48.778;9.126;2024-02-28T06:38:36;97736.84;;;8.98;62.71
21944;BME280;11136;48.778;9.126;2024-02-28T06:41:03;97736.84;;;8.98;62.61
21944;BME280;11136;48.778;9.126;2024-02-28T06:43:29;97508.66;;;7.52;62.86
21944;BME280;11136;48.778;9.126;2024-02-28T06:45:55;97610.09;;;8.13;62.98
21944;BME280;11136;48.778;9.126;2024-02-28T06:48:20;97550.69;;;7.78;62.71
21944;BME280;11136;48.778;9.126;2024-02-28T06:50:45;97687.69;;;8.61;62.23
21944;BME280;11136;48.778;9.126;2024-02-28T06:53:10;97750.06;;;9.06;62.36
21944;BME280;11136;48.778;9.126;2024-02-28T06:55:36;97773.56;;;8.97;62.84
21944;BME280;11136;48.778;9.126;2024-02-28T06:58:01;97468.16;;;7.13;62.23
21944;BME280;11136;48.778;9.126;2024-02-28T07:00:26;97762.09;;;9.04;62.80
21944;BME280;11136;48.778;9.126;2024-02-28T07:02:52;97549.69;;;7.81;62.08
21944;BME280;11136;48.778;9.126;2024-02-28T07:05:18;97760.06;;;9.10;62.16
21944;BME280;11136;48.778;9.126;2024-02-28T07:07:43;97562.13;;;7.87;62.56
21944;BME280;11136;48.778;9.126;2024-02-28T07:10:09;97675.31;;;8.69;62.33
21944;BME280;11136;48.778;9.126;2024-02-28T07:12:34;97705.31;;;8.81;62.29
21944;BME280;11136;48.778;9.126;2024-02-28T07:15:00;97764.75;;;9.18;62.40
21944;BME280;11136;48.778;9.126;2024-02-28T07:17:25;97596.09;;;8.05;62.25
21944;BME280;11136;48.778;9.126;2024-02-28T07:19:50;97575.97;;;7.83;61.73
21944;BME280;11136;48.778;9.126;2024-02-28T07:22:17;97573.81;;;7.75;62.42
21944;BME280;11136;48.778;9.126;2024-02-28T07:24:42;97566.53;;;7.67;62.12
21944;BME280;11136;48.778;9.126;2024-02-28T07:27:07;97584.53;;;7.82;62.40
21944;BME280;11136;48.778;9.126;2024-02-28T07:29:33;97795.78;;;9.12;62.14
21944;BME280;11136;48.778;9.126;2024-02-28T07:31:59;97796.53;;;9.14;62.01
21944;BME280;11136;48.778;9.126;2024-02-28T07:34:26;97793.78;;;9.17;62.43
21944;BME280;11136;48.778;9.126;2024-02-28T07:36:51;97640.38;;;8.21;61.87
21944;BME280;11136;48.778;9.126;2024-02-28T07:39:17;97805.69;;;9.18;62.26
21944;BME280;11136;48.778;9.126;2024-02-28T07:41:42;97802.22;;;9.19;62.40
21944;BME280;11136;48.778;9.126;2024-02-28T07:44:08;97656.78;;;8.17;62.22
21944;BME280;11136;48.778;9.126;2024-02-28T07:46:33;97547.38;;;7.43;61.83
21944;BME280;11136;48.778;9.126;2024-02-28T07:48:59;97605.16;;;7.94;62.14
21944;BME280;11136;48.778;9.126;2024-02-28T07:51:26;97823.34;;;9.23;62.36
21944;BME280;11136;48.778;9.126;2024-02-28T07:53:51;97822.69;;;9.19;61.87
21944;BME280;11136;48.778;9.126;2024-02-28T07:56:17;97828.63;;;9.19;62.13
21944;BME280;11136;48.778;9.126;2024-02-28T07:58:43;97830.19;;;9.22;61.94
21944;BME280;11136;48.778;9.126;2024-02-28T08:01:08;97652.38;;;7.86;61.72
21944;BME280;11136;48.778;9.126;2024-02-28T08:03:34;97760.75;;;8.65;61.97
21944;BME280;11136;48.778;9.126;2024-02-28T08:06:00;97833.56;;;9.23;61.79
21944;BME280;11136;48.778;9.126;2024-02-28T08:08:25;97799.53;;;9.05;61.75
21944;BME280;11136;48.778;9.126;2024-02-28T08:10:50;97753.50;;;8.73;61.91
21944;BME280;11136;48.778;9.126;2024-02-28T08:13:18;97706.63;;;8.41;61.72
21944;BME280;11136;48.778;9.126;2024-02-28T08:15:43;97753.31;;;8.76;61.71
21944;BME280;11136;48.778;9.126;2024-02-28T08:18:08;97682.19;;;8.36;61.23
21944;BME280;11136;48.778;9.126;2024-02-28T08:20:36;97833.75;;;9.35;61.86
21944;BME280;11136;48.778;9.126;2024-02-28T08:23:02;97646.19;;;8.07;61.92
21944;BME280;11136;48.778;9.126;2024-02-28T08:25:28;97845.47;;;9.39;62.07
21944;BME280;11136;48.778;9.126;2024-02-28T08:27:53;97598.25;;;7.96;62.13
21944;BME280;11136;48.778;9.126;2024-02-28T08:30:19;97851.06;;;9.46;61.38
21944;BME280;11136;48.778;9.126;2024-02-28T08:32:44;97845.13;;;9.45;61.52
21944;BME280;11136;48.778;9.126;2024-02-28T08:35:09;97686.69;;;8.48;61.59
21944;BME280;11136;48.778;9.126;2024-02-28T08:37:38;97655.22;;;8.30;61.44
21944;BME280;11136;48.778;9.126;2024-02-28T08:40:04;97842.00;;;9.40;61.99
21944;BME280;11136;48.778;9.126;2024-02-28T08:42:29;97651.41;;;8.21;61.81
21944;BME280;11136;48.778;9.126;2024-02-28T08:44:54;97609.31;;;7.80;61.38
21944;BME280;11136;48.778;9.126;2024-02-28T08:47:23;97848.03;;;9.39;61.11
21944;BME280;11136;48.778;9.126;2024-02-28T08:49:49;97725.41;;;8.56;61.94
21944;BME280;11136;48.778;9.126;2024-02-28T08:52:14;97578.88;;;7.59;62.09
21944;BME280;11136;48.778;9.126;2024-02-28T08:54:39;97769.94;;;8.52;61.50
21944;BME280;11136;48.778;9.126;2024-02-28T08:57:05;97657.03;;;7.95;61.52
21944;BME280;11136;48.778;9.126;2024-02-28T08:59:30;97857.53;;;9.37;61.21
21944;BME280;11136;48.778;9.126;2024-02-28T09:01:55;97694.22;;;8.34;61.63
21944;BME280;11136;48.778;9.126;2024-02-28T09:04:21;97754.22;;;8.75;62.08
21944;BME280;11136;48.778;9.126;2024-02-28T09:06:46;97782.56;;;8.88;61.67
21944;BME280;11136;48.778;9.126;2024-02-28T09:09:11;97762.41;;;8.82;61.46
21944;BME280;11136;48.778;9.126;2024-02-28T09:11:37;97906.25;;;9.51;61.79
21944;BME280;11136;48.778;9.126;2024-02-28T09:14:02;97850.59;;;9.39;61.74
21944;BME280;11136;48.778;9.126;2024-02-28T09:16:28;97662.38;;;8.23;61.62
21944;BME280;11136;48.778;9.126;2024-02-28T09:18:54;97842.34;;;9.34;61.22
21944;BME280;11136;48.778;9.126;2024-02-28T09:21:19;97688.50;;;8.46;61.27
21944;BME280;11136;48.778;9.126;2024-02-28T09:23:44;97869.00;;;9.62;61.55
21944;BME280;11136;48.778;9.126;2024-02-28T09:26:09;97677.44;;;8.45;61.43
21944;BME280;11136;48.778;9.126;2024-02-28T09:28:35;97723.47;;;8.61;61.44
21944;BME280;11136;48.778;9.126;2024-02-28T09:31:01;97589.16;;;7.91;61.11
21944;BME280;11136;48.778;9.126;2024-02-28T09:33:26;97862.81;;;9.66;61.19
21944;BME280;11136;48.778;9.126;2024-02-28T09:35:52;97768.84;;;9.05;61.37
21944;BME280;11136;48.778;9.126;2024-02-28T09:38:19;97866.38;;;9.63;61.68
21944;BME280;11136;48.778;9.126;2024-02-28T09:40:47;97887.41;;;9.68;61.08
21944;BME280;11136;48.778;9.126;2024-02-28T09:43:24;97870.09;;;9.73;61.39
21944;BME280;11136;48.778;9.126;2024-02-28T09:45:58;97864.06;;;9.74;60.94
21944;BME280;11136;48.778;9.126;2024-02-28T09:48:27;97880.09;;;9.78;61.12
21944;BME280;11136;48.778;9.126;2024-02-28T09:50:55;97733.56;;;8.96;60.90
21944;BME280;11136;48.778;9.126;2024-02-28T09:53:21;97815.25;;;9.46;61.02
21944;BME280;11136;48.778;9.126;2024-02-28T09:55:47;97635.69;;;8.29;60.85
21944;BME280;11136;48.778;9.126;2024-02-28T09:58:14;97726.03;;;8.77;60.62
21944;BME280;11136;48.778;9.126;2024-02-28T10:00:40;97876.19;;;9.87;60.89
21944;BME280;11136;48.778;9.126;2024-02-28T10:03:11;97675.38;;;8.52;60.58
21944;BME280;11136;48.778;9.126;2024-02-28T10:05:37;97762.03;;;9.21;60.99
21944;BME280;11136;48.778;9.126;2024-02-28T10:08:04;97731.16;;;8.93;60.25
21944;BME280;11136;48.778;9.126;2024-02-28T10:10:30;97880.38;;;10.03;60.61
21944;BME280;11136;48.778;9.126;2024-02-28T10:12:56;97833.25;;;9.76;59.94
21944;BME280;11136;48.778;9.126;2024-02-28T10:15:21;97880.94;;;10.08;60.08
21944;BME280;11136;48.778;9.126;2024-02-28T10:17:47;97607.19;;;8.37;59.45
21944;BME280;11136;48.778;9.126;2024-02-28T10:20:14;97841.31;;;9.84;59.45
21944;BME280;11136;48.778;9.126;2024-02-28T10:22:39;97835.72;;;9.77;59.72
21944;BME280;11136;48.778;9.126;2024-02-28T10:25:05;97896.22;;;10.10;59.74
21944;BME280;11136;48.778;9.126;2024-02-28T10:27:34;97824.84;;;9.58;59.45
21944;BME280;11136;48.778;9.126;2024-02-28T10:30:02;97740.88;;;9.02;58.83
21944;BME280;11136;48.778;9.126;2024-02-28T10:32:33;97667.72;;;8.52;58.95
21944;BME280;11136;48.778;9.126;2024-02-28T10:35:02;97907.13;;;10.13;58.71
21944;BME280;11136;48.778;9.126;2024-02-28T10:37:32;97854.38;;;9.79;58.86
21944;BME280;11136;48.778;9.126;2024-02-28T10:39:58;97907.22;;;10.12;58.81
21944;BME280;11136;48.778;9.126;2024-02-28T10:42:25;97912.16;;;10.15;59.20
21944;BME280;11136;48.778;9.126;2024-02-28T10:44:52;97817.56;;;9.35;58.82
21944;BME280;11136;48.778;9.126;2024-02-28T10:47:19;97920.31;;;10.23;58.80
21944;BME280;11136;48.778;9.126;2024-02-28T10:49:44;97896.31;;;9.93;58.50
21944;BME280;11136;48.778;9.126;2024-02-28T10:52:11;97834.50;;;9.53;58.54
21944;BME280;11136;48.778;9.126;2024-02-28T10:54:39;97951.72;;;10.27;58.26
21944;BME280;11136;48.778;9.126;2024-02-28T10:57:07;97931.94;;;10.29;57.96
21944;BME280;11136;48.778;9.126;2024-02-28T10:59:35;97951.53;;;10.30;58.00
21944;BME280;11136;48.778;9.126;2024-02-28T11:02:02;97960.78;;;10.32;58.37
21944;BME280;11136;48.778;9.126;2024-02-28T11:04:28;97844.41;;;9.75;58.36
21944;BME280;11136;48.778;9.126;2024-02-28T11:06:55;97823.50;;;9.67;58.40
21944;BME280;11136;48.778;9.126;2024-02-28T11:09:25;97938.47;;;10.03;58.03
21944;BME280;11136;48.778;9.126;2024-02-28T11:11:51;97951.44;;;10.31;58.18
21944;BME280;11136;48.778;9.126;2024-02-28T11:14:17;97754.16;;;9.24;58.36
21944;BME280;11136;48.778;9.126;2024-02-28T11:16:46;97846.78;;;9.62;58.02
21944;BME280;11136;48.778;9.126;2024-02-28T11:19:21;97837.22;;;9.66;57.87
21944;BME280;11136;48.778;9.126;2024-02-28T11:22:05;97939.81;;;10.26;58.24
21944;BME280;11136;48.778;9.126;2024-02-28T11:24:32;97944.94;;;10.26;58.24
21944;BME280;11136;48.778;9.126;2024-02-28T11:26:58;97937.34;;;10.24;58.36
21944;BME280;11136;48.778;9.126;2024-02-28T11:29:25;97942.69;;;10.20;58.33
21944;BME280;11136;48.778;9.126;2024-02-28T11:31:51;97948.72;;;10.19;58.35
21944;BME280;11136;48.778;9.126;2024-02-28T11:34:16;97960.75;;;10.17;58.39
21944;BME280;11136;48.778;9.126;2024-02-28T11:36:42;97778.28;;;9.20;58.36
21944;BME280;11136;48.778;9.126;2024-02-28T11:39:07;97940.19;;;10.18;58.58
21944;BME280;11136;48.778;9.126;2024-02-28T11:41:32;97728.94;;;8.86;58.03
21944;BME280;11136;48.778;9.126;2024-02-28T11:43:58;97667.63;;;8.53;58.25
21944;BME280;11136;48.778;9.126;2024-02-28T11:46:23;97927.06;;;10.08;58.58
21944;BME280;11136;48.778;9.126;2024-02-28T11:48:49;97762.91;;;9.04;58.06
21944;BME280;11136;48.778;9.126;2024-02-28T11:51:14;97942.69;;;9.88;58.20
21944;BME280;11136;48.778;9.126;2024-02-28T11:53:40;97949.78;;;10.14;58.00
21944;BME280;11136;48.778;9.126;2024-02-28T11:56:06;97737.34;;;8.88;57.91
21944;BME280;11136;48.778;9.126;2024-02-28T11:58:33;97933.00;;;9.93;57.88
21944;BME280;11136;48.778;9.126;2024-02-28T12:00:58;97864.47;;;9.67;57.77
21944;BME280;11136;48.778;9.126;2024-02-28T12:03:24;97939.16;;;10.22;57.70
21944;BME280;11136;48.778;9.126;2024-02-28T12:05:50;97656.19;;;8.45;57.93
21944;BME280;11136;48.778;9.126;2024-02-28T12:08:19;97962.22;;;10.22;57.54
21944;BME280;11136;48.778;9.126;2024-02-28T12:10:48;97954.44;;;10.24;57.41
21944;BME280;11136;48.778;9.126;2024-02-28T12:13:19;97876.09;;;9.88;57.78
21944;BME280;11136;48.778;9.126;2024-02-28T12:15:45;97800.22;;;9.40;57.79
21944;BME280;11136;48.778;9.126;2024-02-28T12:18:14;97927.72;;;10.28;57.57
21944;BME280;11136;48.778;9.126;2024-02-28T12:20:40;97773.50;;;9.30;56.98
21944;BME280;11136;48.778;9.126;2024-02-28T12:23:05;97902.69;;;10.01;57.30
21944;BME280;11136;48.778;9.126;2024-02-28T12:25:31;97774.16;;;9.33;57.59
21944;BME280;11136;48.778;9.126;2024-02-28T12:27:56;97771.03;;;9.28;57.48
21944;BME280;11136;48.778;9.126;2024-02-28T12:30:22;97808.56;;;9.43;57.48
21944;BME280;11136;48.778;9.126;2024-02-28T12:32:47;97918.13;;;10.31;57.12
21944;BME280;11136;48.778;9.126;2024-02-28T12:35:13;97810.47;;;9.56;57.09
21944;BME280;11136;48.778;9.126;2024-02-28T12:37:38;97782.72;;;9.48;57.15
21944;BME280;11136;48.778;9.126;2024-02-28T12:40:04;97830.69;;;9.76;56.83
21944;BME280;11136;48.778;9.126;2024-02-28T12:42:31;97922.91;;;10.37;56.90
21944;BME280;11136;48.778;9.126;2024-02-28T12:44:57;97945.97;;;10.37;57.04
21944;BME280;11136;48.778;9.126;2024-02-28T12:47:22;97782.31;;;9.40;57.21
21944;BME280;11136;48.778;9.126;2024-02-28T12:49:47;97782.41;;;9.54;56.85
21944;BME280;11136;48.778;9.126;2024-02-28T12:52:13;97745.09;;;9.34;57.04
21944;BME280;11136;48.778;9.126;2024-02-28T12:54:38;97877.94;;;10.16;56.82
21944;BME280;11136;48.778;9.126;2024-02-28T12:57:04;97722.25;;;9.15;56.90
21944;BME280;11136;48.778;9.126;2024-02-28T12:59:31;97734.22;;;9.31;57.09
21944;BME280;11136;48.778;9.126;2024-02-28T13:01:56;97906.88;;;10.34;56.88
21944;BME280;11136;48.778;9.126;2024-02-28T13:04:22;97910.44;;;10.31;57.03